sensor_id;sensor_type;location;lat;lon;timestamp;P1;durP1;ratioP1;P2;durP2;ratioP2
17826;SDS011;9038;48.208;16.308;2022-11-12T00:01:25;7.97;;;5.40;;
17826;SDS011;9038;48.208;16.308;2022-11-12T00:03:26;6.63;;;5.23;;
17826;SDS011;9038;48.208;16.308;2022-11-12T00:05:30;8.27;;;6.80;;
17826;SDS011;9038;48.208;16.308;2022-11-12T00:07:32;9.20;;;7.07;;
17826;SDS011;9038;48.208;16.308;2022-11-12T00:09:34;12.60;;;9.20;;
17826;SDS011;9038;48.208;16.308;2022-11-12T00:11:35;13.43;;;8.97;;
17826;SDS011;9038;48.208;16.308;2022-11-12T00:13:37;12.77;;;9.97;;
17826;SDS011;9038;48.208;16.308;2022-11-12T00:15:40;15.87;;;9.90;;
17826;SDS011;9038;48.208;16.308;2022-11-12T00:17:42;12.83;;;9.43;;
17826;SDS011;9038;48.208;16.308;2022-11-12T00:19:44;21.37;;;11.00;;
17826;SDS011;9038;48.208;16.308;2022-11-12T00:21:47;20.17;;;12.30;;
17826;SDS011;9038;48.208;16.308;2022-11-12T00:23:49;21.93;;;13.33;;
17826;SDS011;9038;48.208;16.308;2022-11-12T00:25:56;22.87;;;15.20;;
17826;SDS011;9038;48.208;16.308;2022-11-12T00:28:00;20.97;;;14.30;;
17826;SDS011;9038;48.208;16.308;2022-11-12T00:30:03;21.20;;;13.97;;
17826;SDS011;9038;48.208;16.308;2022-11-12T00:32:06;17.20;;;13.53;;
17826;SDS011;9038;48.208;16.308;2022-11-12T00:34:09;13.60;;;10.47;;
17826;SDS011;9038;48.208;16.308;2022-11-12T00:36:11;12.07;;;8.53;;
17826;SDS011;9038;48.208;16.308;2022-11-12T00:38:14;5.93;;;4.73;;
17826;SDS011;9038;48.208;16.308;2022-11-12T00:40:16;7.87;;;4.67;;
17826;SDS011;9038;48.208;16.308;2022-11-12T00:42:18;4.90;;;3.50;;
17826;SDS011;9038;48.208;16.308;2022-11-12T00:44:20;4.00;;;2.90;;
17826;SDS011;9038;48.208;16.308;2022-11-12T00:46:22;3.50;;;2.00;;
17826;SDS011;9038;48.208;16.308;2022-11-12T00:48:24;2.37;;;1.70;;
17826;SDS011;9038;48.208;16.308;2022-11-12T00:50:26;2.00;;;1.43;;
17826;SDS011;9038;48.208;16.308;2022-11-12T00:52:28;3.30;;;1.83;;
17826;SDS011;9038;48.208;16.308;2022-11-12T00:54:31;1.70;;;1.17;;
17826;SDS011;9038;48.208;16.308;2022-11-12T00:56:33;1.43;;;0.97;;
17826;SDS011;9038;48.208;16.308;2022-11-12T00:58:35;1.23;;;1.13;;
17826;SDS011;9038;48.208;16.308;2022-11-12T01:00:37;1.50;;;1.40;;
17826;SDS011;9038;48.208;16.308;2022-11-12T01:02:39;1.20;;;1.10;;
17826;SDS011;9038;48.208;16.308;2022-11-12T01:04:41;1.33;;;1.23;;
17826;SDS011;9038;48.208;16.308;2022-11-12T01:06:43;3.20;;;1.33;;
17826;SDS011;9038;48.208;16.308;2022-11-12T01:08:45;3.47;;;1.80;;
17826;SDS011;9038;48.208;16.308;2022-11-12T01:10:49;1.90;;;1.30;;
17826;SDS011;9038;48.208;16.308;2022-11-12T01:12:51;2.10;;;1.47;;
17826;SDS011;9038;48.208;16.308;2022-11-12T01:14:53;1.80;;;1.20;;
17826;SDS011;9038;48.208;16.308;2022-11-12T01:16:56;1.30;;;1.20;;
17826;SDS011;9038;48.208;16.308;2022-11-12T01:18:58;1.67;;;1.20;;
17826;SDS011;9038;48.208;16.308;2022-11-12T01:21:01;1.53;;;1.10;;
17826;SDS011;9038;48.208;16.308;2022-11-12T01:23:05;3.03;;;1.33;;
17826;SDS011;9038;48.208;16.308;2022-11-12T01:25:07;2.03;;;1.17;;
17826;SDS011;9038;48.208;16.308;2022-11-12T01:27:10;2.17;;;0.97;;
17826;SDS011;9038;48.208;16.308;2022-11-12T01:29:12;3.30;;;1.03;;
17826;SDS011;9038;48.208;16.308;2022-11-12T01:31:15;2.43;;;0.90;;
17826;SDS011;9038;48.208;16.308;2022-11-12T01:33:19;1.50;;;1.30;;
17826;SDS011;9038;48.208;16.308;2022-11-12T01:35:21;1.37;;;1.10;;
17826;SDS011;9038;48.208;16.308;2022-11-12T01:37:22;2.17;;;0.93;;
17826;SDS011;9038;48.208;16.308;2022-11-12T01:39:24;1.63;;;0.90;;
17826;SDS011;9038;48.208;16.308;2022-11-12T01:41:27;1.53;;;1.07;;
17826;SDS011;9038;48.208;16.308;2022-11-12T01:43:32;1.40;;;0.80;;
17826;SDS011;9038;48.208;16.308;2022-11-12T01:45:35;1.20;;;1.03;;
17826;SDS011;9038;48.208;16.308;2022-11-12T01:47:38;2.03;;;1.20;;
17826;SDS011;9038;48.208;16.308;2022-11-12T01:49:40;1.40;;;1.00;;
17826;SDS011;9038;48.208;16.308;2022-11-12T01:51:47;1.80;;;0.90;;
17826;SDS011;9038;48.208;16.308;2022-11-12T01:53:52;1.27;;;1.17;;
17826;SDS011;9038;48.208;16.308;2022-11-12T01:55:58;0.80;;;0.80;;
17826;SDS011;9038;48.208;16.308;2022-11-12T01:58:03;2.23;;;1.30;;
17826;SDS011;9038;48.208;16.308;2022-11-12T02:00:10;2.13;;;1.90;;
17826;SDS011;9038;48.208;16.308;2022-11-12T02:02:14;3.77;;;2.03;;
17826;SDS011;9038;48.208;16.308;2022-11-12T02:04:16;2.50;;;1.57;;
17826;SDS011;9038;48.208;16.308;2022-11-12T02:06:18;0.80;;;0.80;;
17826;SDS011;9038;48.208;16.308;2022-11-12T02:08:21;1.83;;;1.40;;
17826;SDS011;9038;48.208;16.308;2022-11-12T02:10:25;5.67;;;1.40;;
17826;SDS011;9038;48.208;16.308;2022-11-12T02:12:27;1.30;;;1.17;;
17826;SDS011;9038;48.208;16.308;2022-11-12T02:14:47;1.47;;;1.20;;
17826;SDS011;9038;48.208;16.308;2022-11-12T02:16:50;2.10;;;1.50;;
17826;SDS011;9038;48.208;16.308;2022-11-12T02:18:53;1.20;;;1.10;;
17826;SDS011;9038;48.208;16.308;2022-11-12T02:20:55;1.10;;;0.93;;
17826;SDS011;9038;48.208;16.308;2022-11-12T02:23:00;1.40;;;0.97;;
17826;SDS011;9038;48.208;16.308;2022-11-12T02:25:03;0.97;;;0.83;;
17826;SDS011;9038;48.208;16.308;2022-11-12T02:27:05;2.37;;;1.20;;
17826;SDS011;9038;48.208;16.308;2022-11-12T02:29:08;2.90;;;1.30;;
17826;SDS011;9038;48.208;16.308;2022-11-12T02:31:10;3.53;;;1.57;;
17826;SDS011;9038;48.208;16.308;2022-11-12T02:33:12;1.90;;;1.70;;
17826;SDS011;9038;48.208;16.308;2022-11-12T02:35:14;2.30;;;1.80;;
17826;SDS011;9038;48.208;16.308;2022-11-12T02:37:16;2.90;;;1.60;;
17826;SDS011;9038;48.208;16.308;2022-11-12T02:39:19;1.70;;;1.30;;
17826;SDS011;9038;48.208;16.308;2022-11-12T02:41:21;1.97;;;0.90;;
17826;SDS011;9038;48.208;16.308;2022-11-12T02:43:23;1.30;;;0.90;;
17826;SDS011;9038;48.208;16.308;2022-11-12T02:45:25;2.67;;;1.40;;
17826;SDS011;9038;48.208;16.308;2022-11-12T02:47:27;0.90;;;0.90;;
17826;SDS011;9038;48.208;16.308;2022-11-12T02:49:29;0.77;;;0.77;;
17826;SDS011;9038;48.208;16.308;2022-11-12T02:51:31;0.77;;;0.77;;
17826;SDS011;9038;48.208;16.308;2022-11-12T02:53:33;2.47;;;0.70;;
17826;SDS011;9038;48.208;16.308;2022-11-12T02:55:37;1.33;;;0.70;;
17826;SDS011;9038;48.208;16.308;2022-11-12T02:57:39;0.87;;;0.87;;
17826;SDS011;9038;48.208;16.308;2022-11-12T02:59:41;1.27;;;0.90;;
17826;SDS011;9038;48.208;16.308;2022-11-12T03:01:43;1.70;;;1.17;;
17826;SDS011;9038;48.208;16.308;2022-11-12T03:03:45;1.40;;;1.30;;
17826;SDS011;9038;48.208;16.308;2022-11-12T03:05:53;2.33;;;1.00;;
17826;SDS011;9038;48.208;16.308;2022-11-12T03:07:56;1.57;;;1.27;;
17826;SDS011;9038;48.208;16.308;2022-11-12T03:09:58;3.27;;;1.50;;
17826;SDS011;9038;48.208;16.308;2022-11-12T03:12:02;1.80;;;1.17;;
17826;SDS011;9038;48.208;16.308;2022-11-12T03:14:04;1.63;;;1.20;;
17826;SDS011;9038;48.208;16.308;2022-11-12T03:16:06;1.27;;;1.00;;
17826;SDS011;9038;48.208;16.308;2022-11-12T03:18:09;1.20;;;1.10;;
17826;SDS011;9038;48.208;16.308;2022-11-12T03:20:11;1.37;;;1.17;;
17826;SDS011;9038;48.208;16.308;2022-11-12T03:22:13;1.00;;;0.90;;
17826;SDS011;9038;48.208;16.308;2022-11-12T03:24:15;1.10;;;1.00;;
17826;SDS011;9038;48.208;16.308;2022-11-12T03:26:17;1.17;;;1.03;;
17826;SDS011;9038;48.208;16.308;2022-11-12T03:28:20;1.43;;;1.10;;
17826;SDS011;9038;48.208;16.308;2022-11-12T03:30:23;2.10;;;1.00;;
17826;SDS011;9038;48.208;16.308;2022-11-12T03:32:26;2.27;;;1.37;;
17826;SDS011;9038;48.208;16.308;2022-11-12T03:34:28;2.50;;;1.27;;
17826;SDS011;9038;48.208;16.308;2022-11-12T03:36:30;2.20;;;1.20;;
17826;SDS011;9038;48.208;16.308;2022-11-12T03:38:32;1.43;;;1.20;;
17826;SDS011;9038;48.208;16.308;2022-11-12T03:40:34;1.83;;;0.90;;
17826;SDS011;9038;48.208;16.308;2022-11-12T03:42:36;1.77;;;1.30;;
17826;SDS011;9038;48.208;16.308;2022-11-12T03:44:40;2.40;;;1.00;;
17826;SDS011;9038;48.208;16.308;2022-11-12T03:46:42;3.10;;;1.50;;
17826;SDS011;9038;48.208;16.308;2022-11-12T03:48:43;1.30;;;1.00;;
17826;SDS011;9038;48.208;16.308;2022-11-12T03:50:45;1.50;;;1.10;;
17826;SDS011;9038;48.208;16.308;2022-11-12T03:52:48;1.90;;;1.20;;
17826;SDS011;9038;48.208;16.308;2022-11-12T03:54:51;1.63;;;1.17;;
17826;SDS011;9038;48.208;16.308;2022-11-12T03:56:53;2.30;;;1.57;;
17826;SDS011;9038;48.208;16.308;2022-11-12T03:58:55;2.60;;;1.40;;
17826;SDS011;9038;48.208;16.308;2022-11-12T04:00:58;2.47;;;1.53;;
17826;SDS011;9038;48.208;16.308;2022-11-12T04:03:00;1.90;;;1.50;;
17826;SDS011;9038;48.208;16.308;2022-11-12T04:05:02;1.93;;;1.50;;
17826;SDS011;9038;48.208;16.308;2022-11-12T04:07:23;3.40;;;1.57;;
17826;SDS011;9038;48.208;16.308;2022-11-12T04:09:42;3.93;;;1.73;;
17826;SDS011;9038;48.208;16.308;2022-11-12T04:11:44;3.63;;;1.70;;
17826;SDS011;9038;48.208;16.308;2022-11-12T04:13:46;5.73;;;1.67;;
17826;SDS011;9038;48.208;16.308;2022-11-12T04:15:47;4.07;;;1.50;;
17826;SDS011;9038;48.208;16.308;2022-11-12T04:18:10;1.43;;;1.30;;
17826;SDS011;9038;48.208;16.308;2022-11-12T04:20:29;3.60;;;1.97;;
17826;SDS011;9038;48.208;16.308;2022-11-12T04:23:00;2.53;;;1.70;;
17826;SDS011;9038;48.208;16.308;2022-11-12T04:25:02;2.57;;;1.90;;
17826;SDS011;9038;48.208;16.308;2022-11-12T04:27:22;3.23;;;2.27;;
17826;SDS011;9038;48.208;16.308;2022-11-12T04:29:25;6.87;;;4.27;;
17826;SDS011;9038;48.208;16.308;2022-11-12T04:31:45;6.93;;;5.30;;
17826;SDS011;9038;48.208;16.308;2022-11-12T04:33:48;5.90;;;5.30;;
17826;SDS011;9038;48.208;16.308;2022-11-12T04:35:50;7.50;;;5.97;;
17826;SDS011;9038;48.208;16.308;2022-11-12T04:37:52;6.73;;;5.90;;
17826;SDS011;9038;48.208;16.308;2022-11-12T04:39:54;9.70;;;6.40;;
17826;SDS011;9038;48.208;16.308;2022-11-12T04:42:17;7.73;;;6.43;;
17826;SDS011;9038;48.208;16.308;2022-11-12T04:44:37;11.53;;;7.30;;
17826;SDS011;9038;48.208;16.308;2022-11-12T04:47:00;10.27;;;6.23;;
17826;SDS011;9038;48.208;16.308;2022-11-12T04:49:03;7.27;;;6.10;;
17826;SDS011;9038;48.208;16.308;2022-11-12T04:51:05;18.97;;;7.60;;
17826;SDS011;9038;48.208;16.308;2022-11-12T04:53:27;13.10;;;6.27;;
17826;SDS011;9038;48.208;16.308;2022-11-12T04:55:33;9.87;;;6.37;;
17826;SDS011;9038;48.208;16.308;2022-11-12T04:57:35;10.43;;;6.27;;
17826;SDS011;9038;48.208;16.308;2022-11-12T04:59:38;8.63;;;5.47;;
17826;SDS011;9038;48.208;16.308;2022-11-12T05:01:39;7.57;;;5.60;;
17826;SDS011;9038;48.208;16.308;2022-11-12T05:03:41;10.63;;;6.43;;
17826;SDS011;9038;48.208;16.308;2022-11-12T05:05:45;6.47;;;5.50;;
17826;SDS011;9038;48.208;16.308;2022-11-12T05:07:47;6.20;;;5.47;;
17826;SDS011;9038;48.208;16.308;2022-11-12T05:09:49;6.50;;;5.50;;
17826;SDS011;9038;48.208;16.308;2022-11-12T05:11:52;7.57;;;5.53;;
17826;SDS011;9038;48.208;16.308;2022-11-12T05:13:56;6.57;;;5.37;;
17826;SDS011;9038;48.208;16.308;2022-11-12T05:15:58;6.90;;;5.43;;
17826;SDS011;9038;48.208;16.308;2022-11-12T05:17:59;6.77;;;5.67;;
17826;SDS011;9038;48.208;16.308;2022-11-12T05:20:02;7.00;;;5.20;;
17826;SDS011;9038;48.208;16.308;2022-11-12T05:22:05;8.33;;;5.70;;
17826;SDS011;9038;48.208;16.308;2022-11-12T05:24:06;6.63;;;5.90;;
17826;SDS011;9038;48.208;16.308;2022-11-12T05:26:08;7.53;;;5.23;;
17826;SDS011;9038;48.208;16.308;2022-11-12T05:28:10;8.37;;;5.70;;
17826;SDS011;9038;48.208;16.308;2022-11-12T05:30:12;6.87;;;6.13;;
17826;SDS011;9038;48.208;16.308;2022-11-12T05:32:15;8.63;;;5.80;;
17826;SDS011;9038;48.208;16.308;2022-11-12T05:34:17;6.53;;;5.67;;
17826;SDS011;9038;48.208;16.308;2022-11-12T05:36:19;8.17;;;6.37;;
17826;SDS011;9038;48.208;16.308;2022-11-12T05:38:23;10.47;;;5.93;;
17826;SDS011;9038;48.208;16.308;2022-11-12T05:40:25;2.50;;;2.27;;
17826;SDS011;9038;48.208;16.308;2022-11-12T05:42:27;4.67;;;3.60;;
17826;SDS011;9038;48.208;16.308;2022-11-12T05:44:28;5.23;;;3.27;;
17826;SDS011;9038;48.208;16.308;2022-11-12T05:46:30;2.23;;;2.03;;
17826;SDS011;9038;48.208;16.308;2022-11-12T05:48:32;4.10;;;2.83;;
17826;SDS011;9038;48.208;16.308;2022-11-12T05:50:34;5.47;;;2.67;;
17826;SDS011;9038;48.208;16.308;2022-11-12T05:52:36;5.67;;;3.30;;
17826;SDS011;9038;48.208;16.308;2022-11-12T05:54:40;5.70;;;4.00;;
17826;SDS011;9038;48.208;16.308;2022-11-12T05:56:42;4.23;;;3.47;;
17826;SDS011;9038;48.208;16.308;2022-11-12T05:58:44;5.40;;;3.97;;
17826;SDS011;9038;48.208;16.308;2022-11-12T06:00:46;4.37;;;3.60;;
17826;SDS011;9038;48.208;16.308;2022-11-12T06:02:48;5.33;;;4.17;;
17826;SDS011;9038;48.208;16.308;2022-11-12T06:04:50;2.57;;;1.90;;
17826;SDS011;9038;48.208;16.308;2022-11-12T06:06:52;2.37;;;2.17;;
17826;SDS011;9038;48.208;16.308;2022-11-12T06:08:54;3.50;;;2.10;;
17826;SDS011;9038;48.208;16.308;2022-11-12T06:10:57;3.47;;;2.03;;
17826;SDS011;9038;48.208;16.308;2022-11-12T06:12:59;3.00;;;2.00;;
17826;SDS011;9038;48.208;16.308;2022-11-12T06:15:01;2.73;;;2.00;;
17826;SDS011;9038;48.208;16.308;2022-11-12T06:17:04;2.37;;;1.80;;
17826;SDS011;9038;48.208;16.308;2022-11-12T06:19:06;4.27;;;2.27;;
17826;SDS011;9038;48.208;16.308;2022-11-12T06:21:09;2.57;;;2.30;;
17826;SDS011;9038;48.208;16.308;2022-11-12T06:23:21;3.70;;;2.90;;
17826;SDS011;9038;48.208;16.308;2022-11-12T06:25:23;5.33;;;3.57;;
17826;SDS011;9038;48.208;16.308;2022-11-12T06:27:26;7.87;;;5.03;;
17826;SDS011;9038;48.208;16.308;2022-11-12T06:29:28;7.63;;;4.33;;
17826;SDS011;9038;48.208;16.308;2022-11-12T06:31:30;7.00;;;4.30;;
17826;SDS011;9038;48.208;16.308;2022-11-12T06:33:32;6.83;;;5.23;;
17826;SDS011;9038;48.208;16.308;2022-11-12T06:35:34;9.83;;;5.23;;
17826;SDS011;9038;48.208;16.308;2022-11-12T06:37:37;8.10;;;4.90;;
17826;SDS011;9038;48.208;16.308;2022-11-12T06:39:38;14.37;;;5.57;;
17826;SDS011;9038;48.208;16.308;2022-11-12T06:41:40;8.73;;;5.20;;
17826;SDS011;9038;48.208;16.308;2022-11-12T06:43:44;7.53;;;5.27;;
17826;SDS011;9038;48.208;16.308;2022-11-12T06:45:46;7.07;;;4.37;;
17826;SDS011;9038;48.208;16.308;2022-11-12T06:47:47;5.40;;;3.37;;
17826;SDS011;9038;48.208;16.308;2022-11-12T06:49:50;9.50;;;5.03;;
17826;SDS011;9038;48.208;16.308;2022-11-12T06:51:51;9.23;;;3.70;;
17826;SDS011;9038;48.208;16.308;2022-11-12T06:53:54;11.67;;;5.67;;
17826;SDS011;9038;48.208;16.308;2022-11-12T06:56:00;7.60;;;4.93;;
17826;SDS011;9038;48.208;16.308;2022-11-12T06:58:02;4.97;;;2.83;;
17826;SDS011;9038;48.208;16.308;2022-11-12T07:00:08;3.17;;;2.20;;
17826;SDS011;9038;48.208;16.308;2022-11-12T07:02:11;1.97;;;1.77;;
17826;SDS011;9038;48.208;16.308;2022-11-12T07:04:13;2.57;;;1.70;;
17826;SDS011;9038;48.208;16.308;2022-11-12T07:06:15;1.80;;;1.70;;
17826;SDS011;9038;48.208;16.308;2022-11-12T07:08:22;5.83;;;2.37;;
17826;SDS011;9038;48.208;16.308;2022-11-12T07:10:23;2.13;;;1.60;;
17826;SDS011;9038;48.208;16.308;2022-11-12T07:12:25;2.43;;;1.53;;
17826;SDS011;9038;48.208;16.308;2022-11-12T07:14:27;3.27;;;1.20;;
17826;SDS011;9038;48.208;16.308;2022-11-12T07:16:31;2.57;;;1.60;;
17826;SDS011;9038;48.208;16.308;2022-11-12T07:18:33;2.20;;;1.50;;
17826;SDS011;9038;48.208;16.308;2022-11-12T07:20:35;1.90;;;1.30;;
17826;SDS011;9038;48.208;16.308;2022-11-12T07:22:37;1.57;;;1.30;;
17826;SDS011;9038;48.208;16.308;2022-11-12T07:24:39;1.43;;;1.33;;
17826;SDS011;9038;48.208;16.308;2022-11-12T07:26:41;2.00;;;1.30;;
17826;SDS011;9038;48.208;16.308;2022-11-12T07:28:43;4.47;;;1.50;;
17826;SDS011;9038;48.208;16.308;2022-11-12T07:30:46;8.53;;;1.70;;
17826;SDS011;9038;48.208;16.308;2022-11-12T07:32:49;1.77;;;1.50;;
17826;SDS011;9038;48.208;16.308;2022-11-12T07:34:51;2.73;;;1.43;;
17826;SDS011;9038;48.208;16.308;2022-11-12T07:36:53;1.97;;;1.37;;
17826;SDS011;9038;48.208;16.308;2022-11-12T07:38:55;2.97;;;1.37;;
17826;SDS011;9038;48.208;16.308;2022-11-12T07:40:57;1.50;;;1.40;;
17826;SDS011;9038;48.208;16.308;2022-11-12T07:43:00;5.30;;;1.70;;
17826;SDS011;9038;48.208;16.308;2022-11-12T07:45:03;1.30;;;1.20;;
17826;SDS011;9038;48.208;16.308;2022-11-12T07:47:05;1.60;;;1.20;;
17826;SDS011;9038;48.208;16.308;2022-11-12T07:49:09;2.77;;;1.60;;
17826;SDS011;9038;48.208;16.308;2022-11-12T07:51:11;2.70;;;1.93;;
17826;SDS011;9038;48.208;16.308;2022-11-12T07:53:14;3.13;;;2.00;;
17826;SDS011;9038;48.208;16.308;2022-11-12T07:55:16;3.40;;;2.53;;
17826;SDS011;9038;48.208;16.308;2022-11-12T07:57:18;4.07;;;3.47;;
17826;SDS011;9038;48.208;16.308;2022-11-12T07:59:20;8.03;;;4.20;;
17826;SDS011;9038;48.208;16.308;2022-11-12T08:01:23;2.87;;;2.57;;
17826;SDS011;9038;48.208;16.308;2022-11-12T08:03:32;6.17;;;3.27;;
17826;SDS011;9038;48.208;16.308;2022-11-12T08:05:35;6.27;;;3.10;;
17826;SDS011;9038;48.208;16.308;2022-11-12T08:07:37;3.17;;;2.87;;
17826;SDS011;9038;48.208;16.308;2022-11-12T08:09:39;5.77;;;3.13;;
17826;SDS011;9038;48.208;16.308;2022-11-12T08:11:41;4.63;;;3.63;;
17826;SDS011;9038;48.208;16.308;2022-11-12T08:13:43;5.67;;;3.20;;
17826;SDS011;9038;48.208;16.308;2022-11-12T08:15:45;5.90;;;4.00;;
17826;SDS011;9038;48.208;16.308;2022-11-12T08:17:47;10.10;;;7.80;;
17826;SDS011;9038;48.208;16.308;2022-11-12T08:19:49;5.87;;;3.90;;
17826;SDS011;9038;48.208;16.308;2022-11-12T08:21:55;8.70;;;4.80;;
17826;SDS011;9038;48.208;16.308;2022-11-12T08:23:57;4.73;;;2.93;;
17826;SDS011;9038;48.208;16.308;2022-11-12T08:26:00;3.47;;;2.60;;
17826;SDS011;9038;48.208;16.308;2022-11-12T08:28:03;4.10;;;2.57;;
17826;SDS011;9038;48.208;16.308;2022-11-12T08:30:05;4.47;;;2.80;;
17826;SDS011;9038;48.208;16.308;2022-11-12T08:32:08;6.13;;;2.90;;
17826;SDS011;9038;48.208;16.308;2022-11-12T08:34:10;3.77;;;2.47;;
17826;SDS011;9038;48.208;16.308;2022-11-12T08:36:13;3.00;;;2.30;;
17826;SDS011;9038;48.208;16.308;2022-11-12T08:38:17;3.53;;;2.03;;
17826;SDS011;9038;48.208;16.308;2022-11-12T08:40:19;3.87;;;2.47;;
17826;SDS011;9038;48.208;16.308;2022-11-12T08:42:21;2.43;;;2.00;;
17826;SDS011;9038;48.208;16.308;2022-11-12T08:44:23;4.93;;;2.67;;
17826;SDS011;9038;48.208;16.308;2022-11-12T08:46:25;3.00;;;2.07;;
17826;SDS011;9038;48.208;16.308;2022-11-12T08:48:27;3.73;;;2.40;;
17826;SDS011;9038;48.208;16.308;2022-11-12T08:50:30;2.77;;;2.23;;
17826;SDS011;9038;48.208;16.308;2022-11-12T08:52:32;3.70;;;2.33;;
17826;SDS011;9038;48.208;16.308;2022-11-12T08:54:36;2.33;;;1.80;;
17826;SDS011;9038;48.208;16.308;2022-11-12T08:56:38;3.20;;;2.20;;
17826;SDS011;9038;48.208;16.308;2022-11-12T08:58:39;4.73;;;2.10;;
17826;SDS011;9038;48.208;16.308;2022-11-12T09:00:42;3.57;;;2.10;;
17826;SDS011;9038;48.208;16.308;2022-11-12T09:02:45;7.77;;;4.50;;
17826;SDS011;9038;48.208;16.308;2022-11-12T09:04:47;4.73;;;2.50;;
17826;SDS011;9038;48.208;16.308;2022-11-12T09:06:49;4.67;;;2.30;;
17826;SDS011;9038;48.208;16.308;2022-11-12T09:08:51;4.83;;;2.60;;
17826;SDS011;9038;48.208;16.308;2022-11-12T09:10:56;3.17;;;2.20;;
17826;SDS011;9038;48.208;16.308;2022-11-12T09:12:58;1.87;;;1.60;;
17826;SDS011;9038;48.208;16.308;2022-11-12T09:15:00;3.37;;;1.90;;
17826;SDS011;9038;48.208;16.308;2022-11-12T09:17:02;5.00;;;1.80;;
17826;SDS011;9038;48.208;16.308;2022-11-12T09:19:04;5.13;;;2.43;;
17826;SDS011;9038;48.208;16.308;2022-11-12T09:21:07;2.83;;;1.70;;
17826;SDS011;9038;48.208;16.308;2022-11-12T09:23:12;4.43;;;2.07;;
17826;SDS011;9038;48.208;16.308;2022-11-12T09:25:15;2.17;;;1.63;;
17826;SDS011;9038;48.208;16.308;2022-11-12T09:27:18;3.43;;;1.80;;
17826;SDS011;9038;48.208;16.308;2022-11-12T09:29:20;5.40;;;2.13;;
17826;SDS011;9038;48.208;16.308;2022-11-12T09:31:22;4.67;;;2.13;;
17826;SDS011;9038;48.208;16.308;2022-11-12T09:33:25;6.37;;;2.20;;
17826;SDS011;9038;48.208;16.308;2022-11-12T09:35:30;3.40;;;2.27;;
17826;SDS011;9038;48.208;16.308;2022-11-12T09:37:32;4.50;;;2.57;;
17826;SDS011;9038;48.208;16.308;2022-11-12T09:39:37;4.47;;;2.87;;
17826;SDS011;9038;48.208;16.308;2022-11-12T09:41:39;3.63;;;2.30;;
17826;SDS011;9038;48.208;16.308;2022-11-12T09:43:45;2.90;;;1.80;;
17826;SDS011;9038;48.208;16.308;2022-11-12T09:45:50;2.70;;;2.03;;
17826;SDS011;9038;48.208;16.308;2022-11-12T09:47:55;2.80;;;1.73;;
17826;SDS011;9038;48.208;16.308;2022-11-12T09:50:02;3.43;;;1.90;;
17826;SDS011;9038;48.208;16.308;2022-11-12T09:52:15;2.97;;;1.87;;
17826;SDS011;9038;48.208;16.308;2022-11-12T09:54:21;2.53;;;1.53;;
17826;SDS011;9038;48.208;16.308;2022-11-12T09:56:24;5.57;;;2.20;;
17826;SDS011;9038;48.208;16.308;2022-11-12T09:58:28;6.57;;;2.50;;
17826;SDS011;9038;48.208;16.308;2022-11-12T10:00:32;3.53;;;1.97;;
17826;SDS011;9038;48.208;16.308;2022-11-12T10:02:35;2.83;;;1.83;;
17826;SDS011;9038;48.208;16.308;2022-11-12T10:04:43;5.77;;;2.03;;
17826;SDS011;9038;48.208;16.308;2022-11-12T10:07:18;1.93;;;1.60;;
17826;SDS011;9038;48.208;16.308;2022-11-12T10:09:32;2.70;;;1.60;;
17826;SDS011;9038;48.208;16.308;2022-11-12T10:11:50;4.37;;;1.63;;
17826;SDS011;9038;48.208;16.308;2022-11-12T10:14:19;2.60;;;1.97;;
17826;SDS011;9038;48.208;16.308;2022-11-12T10:16:39;2.60;;;1.90;;
17826;SDS011;9038;48.208;16.308;2022-11-12T10:18:55;1.73;;;1.50;;
17826;SDS011;9038;48.208;16.308;2022-11-12T10:21:23;4.70;;;1.80;;
17826;SDS011;9038;48.208;16.308;2022-11-12T10:23:35;1.97;;;1.63;;
17826;SDS011;9038;48.208;16.308;2022-11-12T10:25:42;2.77;;;1.50;;
17826;SDS011;9038;48.208;16.308;2022-11-12T10:27:45;1.87;;;1.60;;
17826;SDS011;9038;48.208;16.308;2022-11-12T10:29:50;2.43;;;1.60;;
17826;SDS011;9038;48.208;16.308;2022-11-12T10:32:00;3.20;;;1.90;;
17826;SDS011;9038;48.208;16.308;2022-11-12T10:34:10;5.57;;;2.07;;
17826;SDS011;9038;48.208;16.308;2022-11-12T10:36:20;3.13;;;2.17;;
17826;SDS011;9038;48.208;16.308;2022-11-12T10:38:26;3.17;;;1.93;;
17826;SDS011;9038;48.208;16.308;2022-11-12T10:40:32;3.77;;;2.00;;
17826;SDS011;9038;48.208;16.308;2022-11-12T10:42:36;2.73;;;1.90;;
17826;SDS011;9038;48.208;16.308;2022-11-12T10:44:57;5.10;;;2.00;;
17826;SDS011;9038;48.208;16.308;2022-11-12T10:47:26;5.03;;;1.97;;
17826;SDS011;9038;48.208;16.308;2022-11-12T10:49:31;4.17;;;1.57;;
17826;SDS011;9038;48.208;16.308;2022-11-12T10:51:34;2.13;;;1.57;;
17826;SDS011;9038;48.208;16.308;2022-11-12T10:53:38;3.87;;;2.30;;
17826;SDS011;9038;48.208;16.308;2022-11-12T10:55:54;2.57;;;2.20;;
17826;SDS011;9038;48.208;16.308;2022-11-12T11:00:23;3.10;;;2.13;;
17826;SDS011;9038;48.208;16.308;2022-11-12T11:02:27;2.60;;;1.70;;
17826;SDS011;9038;48.208;16.308;2022-11-12T11:04:30;1.83;;;1.60;;
17826;SDS011;9038;48.208;16.308;2022-11-12T11:06:34;5.37;;;2.20;;
17826;SDS011;9038;48.208;16.308;2022-11-12T11:08:37;5.13;;;1.77;;
17826;SDS011;9038;48.208;16.308;2022-11-12T11:10:41;3.37;;;1.73;;
17826;SDS011;9038;48.208;16.308;2022-11-12T11:12:43;3.93;;;1.57;;
17826;SDS011;9038;48.208;16.308;2022-11-12T11:14:45;6.23;;;2.30;;
17826;SDS011;9038;48.208;16.308;2022-11-12T11:16:47;5.87;;;2.23;;
17826;SDS011;9038;48.208;16.308;2022-11-12T11:18:53;2.20;;;1.90;;
17826;SDS011;9038;48.208;16.308;2022-11-12T11:21:00;1.97;;;1.40;;
17826;SDS011;9038;48.208;16.308;2022-11-12T11:23:11;2.37;;;1.53;;
17826;SDS011;9038;48.208;16.308;2022-11-12T11:25:18;2.20;;;1.60;;
17826;SDS011;9038;48.208;16.308;2022-11-12T11:27:28;4.33;;;1.57;;
17826;SDS011;9038;48.208;16.308;2022-11-12T11:29:37;4.57;;;1.67;;
17826;SDS011;9038;48.208;16.308;2022-11-12T11:31:57;12.30;;;2.20;;
17826;SDS011;9038;48.208;16.308;2022-11-12T11:34:11;2.30;;;1.60;;
17826;SDS011;9038;48.208;16.308;2022-11-12T11:36:25;3.23;;;2.20;;
17826;SDS011;9038;48.208;16.308;2022-11-12T11:38:41;5.77;;;4.17;;
17826;SDS011;9038;48.208;16.308;2022-11-12T11:40:55;1.93;;;1.40;;
17826;SDS011;9038;48.208;16.308;2022-11-12T11:43:13;2.07;;;1.57;;
17826;SDS011;9038;48.208;16.308;2022-11-12T11:45:41;4.67;;;2.00;;
17826;SDS011;9038;48.208;16.308;2022-11-12T11:47:56;2.23;;;1.60;;
17826;SDS011;9038;48.208;16.308;2022-11-12T11:50:11;5.60;;;3.00;;
17826;SDS011;9038;48.208;16.308;2022-11-12T11:54:57;3.80;;;2.27;;
17826;SDS011;9038;48.208;16.308;2022-11-12T11:57:10;4.13;;;1.50;;
17826;SDS011;9038;48.208;16.308;2022-11-12T11:59:27;4.77;;;1.90;;
17826;SDS011;9038;48.208;16.308;2022-11-12T12:01:42;3.43;;;2.00;;
17826;SDS011;9038;48.208;16.308;2022-11-12T12:04:00;2.30;;;1.90;;
17826;SDS011;9038;48.208;16.308;2022-11-12T12:06:25;3.23;;;1.60;;
17826;SDS011;9038;48.208;16.308;2022-11-12T12:08:31;5.70;;;2.50;;
17826;SDS011;9038;48.208;16.308;2022-11-12T12:10:49;3.27;;;1.67;;
17826;SDS011;9038;48.208;16.308;2022-11-12T12:12:59;5.97;;;2.53;;
17826;SDS011;9038;48.208;16.308;2022-11-12T12:15:15;2.50;;;1.70;;
17826;SDS011;9038;48.208;16.308;2022-11-12T12:17:38;3.07;;;1.93;;
17826;SDS011;9038;48.208;16.308;2022-11-12T12:19:54;3.17;;;1.60;;
17826;SDS011;9038;48.208;16.308;2022-11-12T12:22:04;2.80;;;1.83;;
17826;SDS011;9038;48.208;16.308;2022-11-12T12:24:14;2.30;;;1.67;;
17826;SDS011;9038;48.208;16.308;2022-11-12T12:26:19;3.17;;;1.87;;
17826;SDS011;9038;48.208;16.308;2022-11-12T12:28:26;3.87;;;1.70;;
17826;SDS011;9038;48.208;16.308;2022-11-12T12:30:38;2.90;;;1.80;;
17826;SDS011;9038;48.208;16.308;2022-11-12T12:32:45;4.60;;;2.50;;
17826;SDS011;9038;48.208;16.308;2022-11-12T12:34:55;4.33;;;2.60;;
17826;SDS011;9038;48.208;16.308;2022-11-12T12:37:05;3.70;;;2.70;;